Ottawa, IL (61350)

12:01 PM CDT on August 30, 2015 (GMT -0500)
LaSalle County Government Complex | | Change Station
CLOSE
Current Station
Personal Weather Station
Location: Ottawa, IL
Elevation: 614 ft
Nearby Weather Stations

Elev 614 ft 41.37 °N, 88.83 °W | Updated 8 minutes ago

Overcast
Overcast
73.9 °F
Feels Like 74 °F
N
4.0
Wind Variable Wind from WSW
Gusts 4.0 mph

Today
High -- | Low -- °F
--% Chance of Precip.
Yesterday
High -- | Low -- °F
Precip. -- in
6:19 AM 7:31 PM
Full, 99% visible
Pressure 30.10 in
Visibility 3.0 miles
Clouds Overcast 1000 ft
Heat Index 74 °F
Dew Point 67 °F
Humidity 80%
Rainfall 0.00 in
Snow Depth Not available.
UV 2 out of 12
Pollen 10.40 out of 12
Air Quality Not available.
Flu Activity Not available.
METAR KVYS 301635Z AUTO 17003KT 3SM BR OVC010 21/18 A3010 RMK AO2 T02050182
Pressure 30.10 in
Visibility 3.0 miles
Clouds Overcast 1000 ft
Heat Index 74 °F
Dew Point 67 °F
Humidity 80%
Rainfall 0.00 in
Snow Depth Not available.
UV 2 out of 12
Pollen 10.40 out of 12
Air Quality Not available.
Flu Activity Not available.
METAR KVYS 301635Z AUTO 17003KT 3SM BR OVC010 21/18 A3010 RMK AO2 T02050182

10-Day Weather Forecast

×

Almanac

Astronomy

Aug. 30, 2015 Rise Set
Actual Time
Civil Twilight
Nautical Twilight
Astronomical Twilight
Moon
Length of Visible Light
Length of Day
Tomorrow will be .
, % of the Moon is Illuminated

Today's Extremes

State Highs State Lows

Community

WunderPhotos

Upload Photos

1,851,008 photos uploaded!

WunderBlogs® & News

Nearby

Air Quality

  Air Quality AQ Index Pollutant
Not available.

Snow Depth

Station Depth Elevation

Earthquake Activity

City Distance Mag. Time & Date
Minimum magnitude displayed is 2.5.

Coastal Water Temperatures

Place Temperature

Stations

Nearby Weather Stations

Station Location Temp. Windchill Dew Point Humidity Wind Precip. Elev Updated Type